sensor_id;sensor_type;location;lat;lon;timestamp;P1;durP1;ratioP1;P2;durP2;ratioP2
22652;SDS011;11493;43.344;26.226;2024-01-10T00:01:01;13.80;;;8.32;;
22652;SDS011;11493;43.344;26.226;2024-01-10T00:03:29;16.33;;;8.40;;
22652;SDS011;11493;43.344;26.226;2024-01-10T00:05:59;14.90;;;7.95;;
22652;SDS011;11493;43.344;26.226;2024-01-10T00:08:30;15.77;;;7.70;;
22652;SDS011;11493;43.344;26.226;2024-01-10T00:10:57;13.75;;;8.25;;
22652;SDS011;11493;43.344;26.226;2024-01-10T00:13:25;15.23;;;7.88;;
22652;SDS011;11493;43.344;26.226;2024-01-10T00:15:53;19.10;;;9.25;;
22652;SDS011;11493;43.344;26.226;2024-01-10T00:18:22;13.63;;;8.68;;
22652;SDS011;11493;43.344;26.226;2024-01-10T00:20:49;16.38;;;9.02;;
22652;SDS011;11493;43.344;26.226;2024-01-10T00:23:17;10.30;;;7.15;;
22652;SDS011;11493;43.344;26.226;2024-01-10T00:25:47;9.68;;;6.55;;
22652;SDS011;11493;43.344;26.226;2024-01-10T00:28:15;18.08;;;8.77;;
22652;SDS011;11493;43.344;26.226;2024-01-10T00:30:45;8.55;;;6.85;;
22652;SDS011;11493;43.344;26.226;2024-01-10T00:33:15;15.18;;;8.55;;
22652;SDS011;11493;43.344;26.226;2024-01-10T00:35:43;13.15;;;7.57;;
22652;SDS011;11493;43.344;26.226;2024-01-10T00:38:10;12.10;;;6.93;;
22652;SDS011;11493;43.344;26.226;2024-01-10T00:40:37;9.52;;;6.22;;
22652;SDS011;11493;43.344;26.226;2024-01-10T00:43:04;19.00;;;10.15;;
22652;SDS011;11493;43.344;26.226;2024-01-10T00:45:31;14.23;;;7.85;;
22652;SDS011;11493;43.344;26.226;2024-01-10T00:47:58;10.95;;;5.85;;
22652;SDS011;11493;43.344;26.226;2024-01-10T00:50:26;7.10;;;4.72;;
22652;SDS011;11493;43.344;26.226;2024-01-10T00:52:53;8.18;;;5.57;;
22652;SDS011;11493;43.344;26.226;2024-01-10T00:55:20;8.93;;;4.30;;
22652;SDS011;11493;43.344;26.226;2024-01-10T00:57:48;7.05;;;4.13;;
22652;SDS011;11493;43.344;26.226;2024-01-10T01:00:15;6.93;;;5.05;;
22652;SDS011;11493;43.344;26.226;2024-01-10T01:02:43;7.50;;;4.50;;
22652;SDS011;11493;43.344;26.226;2024-01-10T01:05:10;6.40;;;5.07;;
22652;SDS011;11493;43.344;26.226;2024-01-10T01:07:37;8.20;;;6.60;;
22652;SDS011;11493;43.344;26.226;2024-01-10T01:10:05;14.75;;;7.70;;
22652;SDS011;11493;43.344;26.226;2024-01-10T01:12:32;8.73;;;5.63;;
22652;SDS011;11493;43.344;26.226;2024-01-10T01:14:59;12.40;;;6.97;;
22652;SDS011;11493;43.344;26.226;2024-01-10T01:17:26;12.63;;;6.20;;
22652;SDS011;11493;43.344;26.226;2024-01-10T01:19:53;10.43;;;5.45;;
22652;SDS011;11493;43.344;26.226;2024-01-10T01:22:21;8.38;;;4.95;;
22652;SDS011;11493;43.344;26.226;2024-01-10T01:24:49;11.52;;;7.07;;
22652;SDS011;11493;43.344;26.226;2024-01-10T01:27:16;25.67;;;10.15;;
22652;SDS011;11493;43.344;26.226;2024-01-10T01:29:44;16.10;;;7.75;;
22652;SDS011;11493;43.344;26.226;2024-01-10T01:32:11;15.85;;;7.85;;
22652;SDS011;11493;43.344;26.226;2024-01-10T01:34:38;17.38;;;8.13;;
22652;SDS011;11493;43.344;26.226;2024-01-10T01:37:06;10.68;;;6.40;;
22652;SDS011;11493;43.344;26.226;2024-01-10T01:39:33;6.88;;;5.03;;
22652;SDS011;11493;43.344;26.226;2024-01-10T01:42:00;6.22;;;4.72;;
22652;SDS011;11493;43.344;26.226;2024-01-10T01:44:27;7.22;;;5.18;;
22652;SDS011;11493;43.344;26.226;2024-01-10T01:46:54;6.65;;;4.47;;
22652;SDS011;11493;43.344;26.226;2024-01-10T01:49:22;11.90;;;6.70;;
22652;SDS011;11493;43.344;26.226;2024-01-10T01:51:51;9.55;;;6.30;;
22652;SDS011;11493;43.344;26.226;2024-01-10T01:54:20;12.48;;;6.80;;
22652;SDS011;11493;43.344;26.226;2024-01-10T01:56:48;14.43;;;7.22;;
22652;SDS011;11493;43.344;26.226;2024-01-10T01:59:19;8.52;;;5.97;;
22652;SDS011;11493;43.344;26.226;2024-01-10T02:01:46;8.27;;;5.78;;
22652;SDS011;11493;43.344;26.226;2024-01-10T02:04:14;8.35;;;5.60;;
22652;SDS011;11493;43.344;26.226;2024-01-10T02:06:41;8.40;;;5.90;;
22652;SDS011;11493;43.344;26.226;2024-01-10T02:09:07;8.90;;;5.85;;
22652;SDS011;11493;43.344;26.226;2024-01-10T02:11:35;10.20;;;4.90;;
22652;SDS011;11493;43.344;26.226;2024-01-10T02:14:02;10.05;;;5.43;;
22652;SDS011;11493;43.344;26.226;2024-01-10T02:16:29;6.85;;;4.78;;
22652;SDS011;11493;43.344;26.226;2024-01-10T02:18:57;8.25;;;5.57;;
22652;SDS011;11493;43.344;26.226;2024-01-10T02:21:24;5.70;;;4.20;;
22652;SDS011;11493;43.344;26.226;2024-01-10T02:23:51;10.48;;;5.88;;
22652;SDS011;11493;43.344;26.226;2024-01-10T02:26:18;7.95;;;4.65;;
22652;SDS011;11493;43.344;26.226;2024-01-10T02:28:45;7.50;;;5.30;;
22652;SDS011;11493;43.344;26.226;2024-01-10T02:31:12;11.85;;;5.20;;
22652;SDS011;11493;43.344;26.226;2024-01-10T02:33:39;13.73;;;7.72;;
22652;SDS011;11493;43.344;26.226;2024-01-10T02:36:07;9.40;;;6.57;;
22652;SDS011;11493;43.344;26.226;2024-01-10T02:38:34;9.85;;;5.75;;
22652;SDS011;11493;43.344;26.226;2024-01-10T02:41:01;11.60;;;6.28;;
22652;SDS011;11493;43.344;26.226;2024-01-10T02:43:29;7.97;;;4.20;;
22652;SDS011;11493;43.344;26.226;2024-01-10T02:45:56;8.80;;;4.40;;
22652;SDS011;11493;43.344;26.226;2024-01-10T02:48:23;5.38;;;4.50;;
22652;SDS011;11493;43.344;26.226;2024-01-10T02:50:51;7.10;;;4.80;;
22652;SDS011;11493;43.344;26.226;2024-01-10T02:53:18;7.95;;;4.50;;
22652;SDS011;11493;43.344;26.226;2024-01-10T02:55:45;8.23;;;5.07;;
22652;SDS011;11493;43.344;26.226;2024-01-10T02:58:13;7.00;;;4.78;;
22652;SDS011;11493;43.344;26.226;2024-01-10T03:00:40;7.90;;;5.05;;
22652;SDS011;11493;43.344;26.226;2024-01-10T03:03:07;6.93;;;5.28;;
22652;SDS011;11493;43.344;26.226;2024-01-10T03:05:34;5.70;;;4.68;;
22652;SDS011;11493;43.344;26.226;2024-01-10T03:08:01;7.45;;;4.75;;
22652;SDS011;11493;43.344;26.226;2024-01-10T03:10:31;5.50;;;4.85;;
22652;SDS011;11493;43.344;26.226;2024-01-10T03:12:58;5.85;;;4.32;;
22652;SDS011;11493;43.344;26.226;2024-01-10T03:15:25;7.40;;;4.68;;
22652;SDS011;11493;43.344;26.226;2024-01-10T03:17:52;5.82;;;4.07;;
22652;SDS011;11493;43.344;26.226;2024-01-10T03:20:19;7.25;;;4.45;;
22652;SDS011;11493;43.344;26.226;2024-01-10T03:22:46;7.88;;;4.82;;
22652;SDS011;11493;43.344;26.226;2024-01-10T03:25:13;7.88;;;5.35;;
22652;SDS011;11493;43.344;26.226;2024-01-10T03:27:40;10.02;;;5.35;;
22652;SDS011;11493;43.344;26.226;2024-01-10T03:30:08;10.10;;;4.65;;
22652;SDS011;11493;43.344;26.226;2024-01-10T03:32:35;7.38;;;5.03;;
22652;SDS011;11493;43.344;26.226;2024-01-10T03:35:03;6.95;;;4.55;;
22652;SDS011;11493;43.344;26.226;2024-01-10T03:37:30;8.20;;;5.47;;
22652;SDS011;11493;43.344;26.226;2024-01-10T03:39:57;6.53;;;4.55;;
22652;SDS011;11493;43.344;26.226;2024-01-10T03:42:26;9.85;;;5.10;;
22652;SDS011;11493;43.344;26.226;2024-01-10T03:44:53;8.95;;;5.25;;
22652;SDS011;11493;43.344;26.226;2024-01-10T03:47:20;9.75;;;5.43;;
22652;SDS011;11493;43.344;26.226;2024-01-10T03:49:48;5.75;;;4.65;;
22652;SDS011;11493;43.344;26.226;2024-01-10T03:52:15;10.80;;;5.90;;
22652;SDS011;11493;43.344;26.226;2024-01-10T03:54:42;9.30;;;5.63;;
22652;SDS011;11493;43.344;26.226;2024-01-10T03:57:09;10.32;;;6.38;;
22652;SDS011;11493;43.344;26.226;2024-01-10T03:59:36;8.85;;;5.53;;
22652;SDS011;11493;43.344;26.226;2024-01-10T04:02:03;12.52;;;7.03;;
22652;SDS011;11493;43.344;26.226;2024-01-10T04:04:31;15.13;;;7.38;;
22652;SDS011;11493;43.344;26.226;2024-01-10T04:06:59;15.30;;;6.80;;
22652;SDS011;11493;43.344;26.226;2024-01-10T04:09:26;26.50;;;11.38;;
22652;SDS011;11493;43.344;26.226;2024-01-10T04:11:54;28.95;;;12.75;;
22652;SDS011;11493;43.344;26.226;2024-01-10T04:14:21;23.13;;;11.20;;
22652;SDS011;11493;43.344;26.226;2024-01-10T04:16:48;23.73;;;10.30;;
22652;SDS011;11493;43.344;26.226;2024-01-10T04:19:15;21.15;;;10.20;;
22652;SDS011;11493;43.344;26.226;2024-01-10T04:21:43;20.98;;;9.27;;
22652;SDS011;11493;43.344;26.226;2024-01-10T04:24:10;17.35;;;7.07;;
22652;SDS011;11493;43.344;26.226;2024-01-10T04:26:37;16.55;;;6.35;;
22652;SDS011;11493;43.344;26.226;2024-01-10T04:29:05;13.40;;;6.88;;
22652;SDS011;11493;43.344;26.226;2024-01-10T04:31:34;11.50;;;6.30;;
22652;SDS011;11493;43.344;26.226;2024-01-10T04:34:02;20.70;;;10.38;;
22652;SDS011;11493;43.344;26.226;2024-01-10T04:36:30;16.40;;;9.57;;
22652;SDS011;11493;43.344;26.226;2024-01-10T04:38:58;18.20;;;10.35;;
22652;SDS011;11493;43.344;26.226;2024-01-10T04:41:25;23.45;;;9.38;;
22652;SDS011;11493;43.344;26.226;2024-01-10T04:43:52;37.70;;;20.83;;
22652;SDS011;11493;43.344;26.226;2024-01-10T04:46:19;28.08;;;15.05;;
22652;SDS011;11493;43.344;26.226;2024-01-10T04:48:46;16.75;;;9.68;;
22652;SDS011;11493;43.344;26.226;2024-01-10T04:51:14;13.93;;;9.23;;
22652;SDS011;11493;43.344;26.226;2024-01-10T04:53:41;14.23;;;10.32;;
22652;SDS011;11493;43.344;26.226;2024-01-10T04:56:09;18.30;;;10.07;;
22652;SDS011;11493;43.344;26.226;2024-01-10T04:58:36;17.73;;;11.88;;
22652;SDS011;11493;43.344;26.226;2024-01-10T05:01:03;20.10;;;11.88;;
22652;SDS011;11493;43.344;26.226;2024-01-10T05:03:31;26.23;;;13.25;;
22652;SDS011;11493;43.344;26.226;2024-01-10T05:05:58;22.88;;;13.45;;
22652;SDS011;11493;43.344;26.226;2024-01-10T05:08:26;25.73;;;14.68;;
22652;SDS011;11493;43.344;26.226;2024-01-10T05:10:53;24.92;;;13.02;;
22652;SDS011;11493;43.344;26.226;2024-01-10T05:13:20;28.33;;;14.00;;
22652;SDS011;11493;43.344;26.226;2024-01-10T05:15:48;35.28;;;16.77;;
22652;SDS011;11493;43.344;26.226;2024-01-10T05:18:15;35.78;;;14.68;;
22652;SDS011;11493;43.344;26.226;2024-01-10T05:20:43;40.63;;;20.73;;
22652;SDS011;11493;43.344;26.226;2024-01-10T05:23:11;54.00;;;34.47;;
22652;SDS011;11493;43.344;26.226;2024-01-10T05:25:39;43.22;;;23.30;;
22652;SDS011;11493;43.344;26.226;2024-01-10T05:28:06;42.30;;;18.67;;
22652;SDS011;11493;43.344;26.226;2024-01-10T05:30:33;45.75;;;20.63;;
22652;SDS011;11493;43.344;26.226;2024-01-10T05:33:00;34.47;;;18.15;;
22652;SDS011;11493;43.344;26.226;2024-01-10T05:35:27;57.45;;;25.35;;
22652;SDS011;11493;43.344;26.226;2024-01-10T05:37:55;49.38;;;24.65;;
22652;SDS011;11493;43.344;26.226;2024-01-10T05:40:23;50.50;;;28.13;;
22652;SDS011;11493;43.344;26.226;2024-01-10T05:42:50;64.75;;;30.23;;
22652;SDS011;11493;43.344;26.226;2024-01-10T05:45:17;57.72;;;29.80;;
22652;SDS011;11493;43.344;26.226;2024-01-10T05:47:45;50.30;;;23.65;;
22652;SDS011;11493;43.344;26.226;2024-01-10T05:50:12;40.08;;;23.73;;
22652;SDS011;11493;43.344;26.226;2024-01-10T05:52:39;38.33;;;24.27;;
22652;SDS011;11493;43.344;26.226;2024-01-10T05:55:07;54.65;;;28.15;;
22652;SDS011;11493;43.344;26.226;2024-01-10T05:57:36;68.05;;;30.33;;
22652;SDS011;11493;43.344;26.226;2024-01-10T06:00:04;58.60;;;30.10;;
22652;SDS011;11493;43.344;26.226;2024-01-10T06:02:37;48.72;;;25.77;;
22652;SDS011;11493;43.344;26.226;2024-01-10T06:05:09;56.20;;;27.90;;
22652;SDS011;11493;43.344;26.226;2024-01-10T06:07:42;49.97;;;22.45;;
22652;SDS011;11493;43.344;26.226;2024-01-10T06:10:10;64.13;;;27.50;;
22652;SDS011;11493;43.344;26.226;2024-01-10T06:12:39;42.80;;;20.23;;
22652;SDS011;11493;43.344;26.226;2024-01-10T06:15:07;47.78;;;18.05;;
22652;SDS011;11493;43.344;26.226;2024-01-10T06:17:35;31.50;;;14.82;;
22652;SDS011;11493;43.344;26.226;2024-01-10T06:20:04;26.83;;;12.20;;
22652;SDS011;11493;43.344;26.226;2024-01-10T06:22:34;28.52;;;12.77;;
22652;SDS011;11493;43.344;26.226;2024-01-10T06:25:01;31.65;;;16.02;;
22652;SDS011;11493;43.344;26.226;2024-01-10T06:27:43;30.40;;;13.60;;
22652;SDS011;11493;43.344;26.226;2024-01-10T06:30:10;28.08;;;12.93;;
22652;SDS011;11493;43.344;26.226;2024-01-10T06:35:09;34.15;;;14.30;;
22652;SDS011;11493;43.344;26.226;2024-01-10T06:37:40;31.73;;;13.82;;
22652;SDS011;11493;43.344;26.226;2024-01-10T06:40:09;24.42;;;12.27;;
22652;SDS011;11493;43.344;26.226;2024-01-10T06:42:37;21.50;;;10.30;;
22652;SDS011;11493;43.344;26.226;2024-01-10T06:45:06;48.72;;;20.63;;
22652;SDS011;11493;43.344;26.226;2024-01-10T06:47:34;26.80;;;11.93;;
22652;SDS011;11493;43.344;26.226;2024-01-10T06:50:02;35.47;;;14.43;;
22652;SDS011;11493;43.344;26.226;2024-01-10T06:52:32;32.08;;;12.98;;
22652;SDS011;11493;43.344;26.226;2024-01-10T06:55:01;52.42;;;20.38;;
22652;SDS011;11493;43.344;26.226;2024-01-10T06:57:32;54.72;;;21.73;;
22652;SDS011;11493;43.344;26.226;2024-01-10T06:59:59;35.97;;;16.65;;
22652;SDS011;11493;43.344;26.226;2024-01-10T07:02:29;35.37;;;15.57;;
22652;SDS011;11493;43.344;26.226;2024-01-10T07:04:59;20.35;;;10.77;;
22652;SDS011;11493;43.344;26.226;2024-01-10T07:07:26;14.85;;;10.00;;
22652;SDS011;11493;43.344;26.226;2024-01-10T07:09:53;17.17;;;10.30;;
22652;SDS011;11493;43.344;26.226;2024-01-10T07:12:20;20.25;;;10.13;;
22652;SDS011;11493;43.344;26.226;2024-01-10T07:14:47;29.25;;;12.15;;
22652;SDS011;11493;43.344;26.226;2024-01-10T07:17:14;21.92;;;12.80;;
22652;SDS011;11493;43.344;26.226;2024-01-10T07:19:41;19.20;;;11.45;;
22652;SDS011;11493;43.344;26.226;2024-01-10T07:22:12;32.38;;;14.82;;
22652;SDS011;11493;43.344;26.226;2024-01-10T07:24:39;47.75;;;19.23;;
22652;SDS011;11493;43.344;26.226;2024-01-10T07:27:06;40.30;;;17.95;;
22652;SDS011;11493;43.344;26.226;2024-01-10T07:29:34;26.00;;;14.70;;
22652;SDS011;11493;43.344;26.226;2024-01-10T07:32:02;20.60;;;10.82;;
22652;SDS011;11493;43.344;26.226;2024-01-10T07:34:37;24.60;;;11.18;;
22652;SDS011;11493;43.344;26.226;2024-01-10T07:37:04;18.17;;;9.90;;
22652;SDS011;11493;43.344;26.226;2024-01-10T07:39:32;16.75;;;10.00;;
22652;SDS011;11493;43.344;26.226;2024-01-10T07:41:59;23.48;;;11.32;;
22652;SDS011;11493;43.344;26.226;2024-01-10T07:44:29;23.58;;;12.70;;
22652;SDS011;11493;43.344;26.226;2024-01-10T07:46:56;23.30;;;11.32;;
22652;SDS011;11493;43.344;26.226;2024-01-10T07:49:27;15.75;;;10.02;;
22652;SDS011;11493;43.344;26.226;2024-01-10T07:51:56;18.75;;;9.98;;
22652;SDS011;11493;43.344;26.226;2024-01-10T07:54:23;22.40;;;10.73;;
22652;SDS011;11493;43.344;26.226;2024-01-10T07:56:50;16.42;;;10.20;;
22652;SDS011;11493;43.344;26.226;2024-01-10T07:59:20;21.05;;;12.02;;
22652;SDS011;11493;43.344;26.226;2024-01-10T08:01:54;17.38;;;9.93;;
22652;SDS011;11493;43.344;26.226;2024-01-10T08:04:26;16.83;;;9.57;;
22652;SDS011;11493;43.344;26.226;2024-01-10T08:06:53;13.90;;;8.55;;
22652;SDS011;11493;43.344;26.226;2024-01-10T08:09:22;16.38;;;10.20;;
22652;SDS011;11493;43.344;26.226;2024-01-10T08:11:50;24.10;;;12.15;;
22652;SDS011;11493;43.344;26.226;2024-01-10T08:14:18;24.13;;;12.18;;
22652;SDS011;11493;43.344;26.226;2024-01-10T08:16:45;23.55;;;11.60;;
22652;SDS011;11493;43.344;26.226;2024-01-10T08:19:14;29.95;;;13.05;;
22652;SDS011;11493;43.344;26.226;2024-01-10T08:21:42;23.40;;;11.77;;
22652;SDS011;11493;43.344;26.226;2024-01-10T08:24:09;20.50;;;11.40;;
22652;SDS011;11493;43.344;26.226;2024-01-10T08:26:36;21.00;;;10.15;;
22652;SDS011;11493;43.344;26.226;2024-01-10T08:29:05;19.92;;;10.27;;
22652;SDS011;11493;43.344;26.226;2024-01-10T08:31:32;26.15;;;12.27;;
22652;SDS011;11493;43.344;26.226;2024-01-10T08:33:59;31.67;;;14.73;;
22652;SDS011;11493;43.344;26.226;2024-01-10T08:36:26;19.25;;;10.25;;
22652;SDS011;11493;43.344;26.226;2024-01-10T08:38:54;17.20;;;10.57;;
22652;SDS011;11493;43.344;26.226;2024-01-10T08:41:22;16.52;;;10.43;;
22652;SDS011;11493;43.344;26.226;2024-01-10T08:43:49;18.20;;;10.45;;
22652;SDS011;11493;43.344;26.226;2024-01-10T08:46:17;10.98;;;7.00;;
22652;SDS011;11493;43.344;26.226;2024-01-10T08:48:45;12.75;;;7.47;;
22652;SDS011;11493;43.344;26.226;2024-01-10T08:51:14;19.38;;;9.13;;
22652;SDS011;11493;43.344;26.226;2024-01-10T08:53:43;13.52;;;8.88;;
22652;SDS011;11493;43.344;26.226;2024-01-10T08:56:11;16.55;;;7.90;;
22652;SDS011;11493;43.344;26.226;2024-01-10T08:58:39;18.20;;;9.07;;
22652;SDS011;11493;43.344;26.226;2024-01-10T09:01:06;12.90;;;7.88;;
22652;SDS011;11493;43.344;26.226;2024-01-10T09:03:34;14.90;;;8.27;;
22652;SDS011;11493;43.344;26.226;2024-01-10T09:06:02;16.35;;;8.25;;
22652;SDS011;11493;43.344;26.226;2024-01-10T09:08:37;12.95;;;8.95;;
22652;SDS011;11493;43.344;26.226;2024-01-10T09:11:06;11.00;;;8.75;;
22652;SDS011;11493;43.344;26.226;2024-01-10T09:13:33;13.15;;;8.57;;
22652;SDS011;11493;43.344;26.226;2024-01-10T09:16:01;17.30;;;9.63;;
22652;SDS011;11493;43.344;26.226;2024-01-10T09:18:28;17.20;;;11.20;;
22652;SDS011;11493;43.344;26.226;2024-01-10T09:20:56;15.70;;;8.38;;
22652;SDS011;11493;43.344;26.226;2024-01-10T09:23:23;11.95;;;7.75;;
22652;SDS011;11493;43.344;26.226;2024-01-10T09:25:50;13.00;;;5.95;;
22652;SDS011;11493;43.344;26.226;2024-01-10T09:28:18;12.82;;;7.65;;
22652;SDS011;11493;43.344;26.226;2024-01-10T09:30:45;10.90;;;6.57;;
22652;SDS011;11493;43.344;26.226;2024-01-10T09:33:12;11.93;;;7.60;;
22652;SDS011;11493;43.344;26.226;2024-01-10T09:35:40;11.88;;;6.82;;
22652;SDS011;11493;43.344;26.226;2024-01-10T09:38:08;8.95;;;5.53;;
22652;SDS011;11493;43.344;26.226;2024-01-10T09:40:35;16.88;;;7.85;;
22652;SDS011;11493;43.344;26.226;2024-01-10T09:43:03;12.32;;;6.47;;
22652;SDS011;11493;43.344;26.226;2024-01-10T09:45:33;12.85;;;8.77;;
22652;SDS011;11493;43.344;26.226;2024-01-10T09:48:02;14.90;;;8.65;;
22652;SDS011;11493;43.344;26.226;2024-01-10T09:50:30;29.85;;;12.95;;
22652;SDS011;11493;43.344;26.226;2024-01-10T09:53:05;26.75;;;11.82;;
22652;SDS011;11493;43.344;26.226;2024-01-10T09:55:37;17.88;;;9.35;;
22652;SDS011;11493;43.344;26.226;2024-01-10T09:58:07;18.25;;;9.07;;
22652;SDS011;11493;43.344;26.226;2024-01-10T10:03:09;15.15;;;8.95;;
22652;SDS011;11493;43.344;26.226;2024-01-10T10:05:39;20.38;;;10.48;;
22652;SDS011;11493;43.344;26.226;2024-01-10T10:08:12;11.77;;;7.57;;
22652;SDS011;11493;43.344;26.226;2024-01-10T10:10:49;10.40;;;7.22;;
22652;SDS011;11493;43.344;26.226;2024-01-10T10:13:29;9.77;;;6.57;;
22652;SDS011;11493;43.344;26.226;2024-01-10T10:16:03;14.45;;;8.68;;
22652;SDS011;11493;43.344;26.226;2024-01-10T10:18:31;20.92;;;11.27;;
22652;SDS011;11493;43.344;26.226;2024-01-10T10:21:12;50.30;;;21.65;;
22652;SDS011;11493;43.344;26.226;2024-01-10T10:23:41;36.75;;;16.05;;
22652;SDS011;11493;43.344;26.226;2024-01-10T10:26:13;18.88;;;9.25;;
22652;SDS011;11493;43.344;26.226;2024-01-10T10:28:48;13.90;;;7.75;;
22652;SDS011;11493;43.344;26.226;2024-01-10T10:31:17;9.45;;;6.13;;
22652;SDS011;11493;43.344;26.226;2024-01-10T10:33:46;12.80;;;8.32;;
22652;SDS011;11493;43.344;26.226;2024-01-10T10:36:17;22.50;;;9.30;;
22652;SDS011;11493;43.344;26.226;2024-01-10T10:38:48;17.55;;;9.13;;
22652;SDS011;11493;43.344;26.226;2024-01-10T10:41:16;19.30;;;9.35;;
22652;SDS011;11493;43.344;26.226;2024-01-10T10:43:45;17.20;;;8.80;;
22652;SDS011;11493;43.344;26.226;2024-01-10T10:46:13;8.30;;;6.20;;
22652;SDS011;11493;43.344;26.226;2024-01-10T10:48:42;10.50;;;6.72;;
22652;SDS011;11493;43.344;26.226;2024-01-10T10:51:11;13.27;;;7.55;;
22652;SDS011;11493;43.344;26.226;2024-01-10T10:53:42;13.80;;;7.72;;
22652;SDS011;11493;43.344;26.226;2024-01-10T10:56:13;14.50;;;6.43;;
22652;SDS011;11493;43.344;26.226;2024-01-10T10:58:42;9.85;;;7.28;;
22652;SDS011;11493;43.344;26.226;2024-01-10T11:01:11;12.10;;;6.88;;
22652;SDS011;11493;43.344;26.226;2024-01-10T11:03:40;13.90;;;7.97;;
22652;SDS011;11493;43.344;26.226;2024-01-10T11:06:14;14.57;;;8.55;;
22652;SDS011;11493;43.344;26.226;2024-01-10T11:08:50;11.07;;;5.85;;
22652;SDS011;11493;43.344;26.226;2024-01-10T11:11:56;18.30;;;7.38;;
22652;SDS011;11493;43.344;26.226;2024-01-10T11:25:44;9.15;;;5.57;;
22652;SDS011;11493;43.344;26.226;2024-01-10T11:28:12;8.57;;;5.47;;
22652;SDS011;11493;43.344;26.226;2024-01-10T11:30:49;12.85;;;7.03;;
22652;SDS011;11493;43.344;26.226;2024-01-10T11:33:21;11.05;;;6.78;;
22652;SDS011;11493;43.344;26.226;2024-01-10T11:41:12;7.70;;;5.00;;
22652;SDS011;11493;43.344;26.226;2024-01-10T11:43:46;11.30;;;7.68;;
22652;SDS011;11493;43.344;26.226;2024-01-10T11:46:54;9.15;;;5.43;;
22652;SDS011;11493;43.344;26.226;2024-01-10T11:49:23;13.13;;;6.78;;
22652;SDS011;11493;43.344;26.226;2024-01-10T11:51:53;9.52;;;6.55;;
22652;SDS011;11493;43.344;26.226;2024-01-10T11:54:44;21.05;;;7.88;;
22652;SDS011;11493;43.344;26.226;2024-01-10T11:57:13;11.38;;;7.57;;
22652;SDS011;11493;43.344;26.226;2024-01-10T11:59:45;18.45;;;10.93;;
22652;SDS011;11493;43.344;26.226;2024-01-10T12:02:13;9.43;;;6.88;;
22652;SDS011;11493;43.344;26.226;2024-01-10T12:04:41;14.65;;;7.68;;
22652;SDS011;11493;43.344;26.226;2024-01-10T12:07:14;10.13;;;6.38;;
22652;SDS011;11493;43.344;26.226;2024-01-10T12:09:43;14.70;;;6.32;;
22652;SDS011;11493;43.344;26.226;2024-01-10T12:12:14;7.47;;;5.97;;
22652;SDS011;11493;43.344;26.226;2024-01-10T12:14:41;7.03;;;5.32;;
22652;SDS011;11493;43.344;26.226;2024-01-10T12:17:15;8.98;;;6.05;;
22652;SDS011;11493;43.344;26.226;2024-01-10T12:19:43;10.18;;;7.00;;
22652;SDS011;11493;43.344;26.226;2024-01-10T12:22:13;14.65;;;7.75;;
22652;SDS011;11493;43.344;26.226;2024-01-10T12:24:47;28.67;;;13.40;;
22652;SDS011;11493;43.344;26.226;2024-01-10T12:27:17;18.27;;;9.50;;
22652;SDS011;11493;43.344;26.226;2024-01-10T12:29:49;13.57;;;7.63;;
22652;SDS011;11493;43.344;26.226;2024-01-10T12:32:20;18.60;;;9.50;;
22652;SDS011;11493;43.344;26.226;2024-01-10T12:34:59;11.73;;;7.10;;
22652;SDS011;11493;43.344;26.226;2024-01-10T12:37:29;13.88;;;8.45;;
22652;SDS011;11493;43.344;26.226;2024-01-10T12:39:57;12.40;;;7.68;;
22652;SDS011;11493;43.344;26.226;2024-01-10T12:42:24;10.15;;;6.82;;
22652;SDS011;11493;43.344;26.226;2024-01-10T12:44:51;14.20;;;6.10;;
22652;SDS011;11493;43.344;26.226;2024-01-10T12:47:19;17.13;;;8.73;;
22652;SDS011;11493;43.344;26.226;2024-01-10T12:49:48;13.48;;;8.27;;
22652;SDS011;11493;43.344;26.226;2024-01-10T12:52:15;9.68;;;6.88;;
22652;SDS011;11493;43.344;26.226;2024-01-10T12:54:47;15.88;;;8.93;;
22652;SDS011;11493;43.344;26.226;2024-01-10T12:57:15;13.75;;;9.20;;
22652;SDS011;11493;43.344;26.226;2024-01-10T12:59:42;19.20;;;8.70;;
22652;SDS011;11493;43.344;26.226;2024-01-10T13:02:08;38.50;;;14.90;;
22652;SDS011;11493;43.344;26.226;2024-01-10T13:04:36;12.20;;;6.50;;
22652;SDS011;11493;43.344;26.226;2024-01-10T13:07:03;13.70;;;7.00;;
22652;SDS011;11493;43.344;26.226;2024-01-10T13:09:30;30.63;;;13.30;;
22652;SDS011;11493;43.344;26.226;2024-01-10T13:11:58;49.30;;;16.48;;
22652;SDS011;11493;43.344;26.226;2024-01-10T13:14:25;45.95;;;16.55;;
22652;SDS011;11493;43.344;26.226;2024-01-10T13:16:52;45.92;;;17.02;;
22652;SDS011;11493;43.344;26.226;2024-01-10T13:19:26;33.72;;;11.95;;
22652;SDS011;11493;43.344;26.226;2024-01-10T13:21:53;21.00;;;12.82;;
22652;SDS011;11493;43.344;26.226;2024-01-10T13:24:20;25.85;;;13.43;;
22652;SDS011;11493;43.344;26.226;2024-01-10T13:26:48;27.70;;;14.43;;
22652;SDS011;11493;43.344;26.226;2024-01-10T13:29:15;35.63;;;18.52;;
22652;SDS011;11493;43.344;26.226;2024-01-10T13:31:43;41.60;;;18.65;;
22652;SDS011;11493;43.344;26.226;2024-01-10T13:34:10;69.78;;;29.73;;
22652;SDS011;11493;43.344;26.226;2024-01-10T13:36:38;49.17;;;25.55;;
22652;SDS011;11493;43.344;26.226;2024-01-10T13:39:06;33.78;;;15.45;;
22652;SDS011;11493;43.344;26.226;2024-01-10T13:41:34;31.40;;;15.90;;
22652;SDS011;11493;43.344;26.226;2024-01-10T13:44:01;31.42;;;15.63;;
22652;SDS011;11493;43.344;26.226;2024-01-10T13:46:28;40.85;;;20.60;;
22652;SDS011;11493;43.344;26.226;2024-01-10T13:48:55;52.55;;;27.38;;
22652;SDS011;11493;43.344;26.226;2024-01-10T13:51:23;40.70;;;21.08;;
22652;SDS011;11493;43.344;26.226;2024-01-10T13:53:50;44.15;;;23.20;;
22652;SDS011;11493;43.344;26.226;2024-01-10T13:56:19;32.55;;;17.17;;
22652;SDS011;11493;43.344;26.226;2024-01-10T13:58:49;28.10;;;16.98;;
22652;SDS011;11493;43.344;26.226;2024-01-10T14:01:16;43.28;;;23.13;;
22652;SDS011;11493;43.344;26.226;2024-01-10T14:03:43;47.53;;;22.52;;
22652;SDS011;11493;43.344;26.226;2024-01-10T14:06:10;38.65;;;17.75;;
22652;SDS011;11493;43.344;26.226;2024-01-10T14:08:38;54.03;;;21.10;;
22652;SDS011;11493;43.344;26.226;2024-01-10T14:11:07;39.60;;;18.20;;
22652;SDS011;11493;43.344;26.226;2024-01-10T14:13:35;47.03;;;20.10;;
22652;SDS011;11493;43.344;26.226;2024-01-10T14:16:02;49.35;;;20.45;;
22652;SDS011;11493;43.344;26.226;2024-01-10T14:18:30;26.48;;;13.63;;
22652;SDS011;11493;43.344;26.226;2024-01-10T14:20:57;27.88;;;13.88;;
22652;SDS011;11493;43.344;26.226;2024-01-10T14:23:25;24.08;;;10.50;;
22652;SDS011;11493;43.344;26.226;2024-01-10T14:25:52;40.90;;;18.80;;
22652;SDS011;11493;43.344;26.226;2024-01-10T14:28:20;32.03;;;16.88;;
22652;SDS011;11493;43.344;26.226;2024-01-10T14:30:47;33.53;;;15.75;;
22652;SDS011;11493;43.344;26.226;2024-01-10T14:33:14;36.92;;;19.30;;
22652;SDS011;11493;43.344;26.226;2024-01-10T14:35:42;42.58;;;19.33;;
22652;SDS011;11493;43.344;26.226;2024-01-10T14:38:09;35.90;;;16.67;;
22652;SDS011;11493;43.344;26.226;2024-01-10T14:40:36;31.55;;;14.80;;
22652;SDS011;11493;43.344;26.226;2024-01-10T14:43:04;30.92;;;15.48;;
22652;SDS011;11493;43.344;26.226;2024-01-10T14:45:31;48.40;;;21.50;;
22652;SDS011;11493;43.344;26.226;2024-01-10T14:47:58;47.47;;;20.70;;